createdAt,value
2023-10-18T00:00:34.537Z,9.60
2023-10-18T00:03:05.454Z,9.60
2023-10-18T00:05:32.827Z,9.50
2023-10-18T00:08:00.470Z,9.60
2023-10-18T00:10:31.554Z,9.60
2023-10-18T00:13:00.062Z,9.60
2023-10-18T00:15:27.038Z,9.70
2023-10-18T00:17:54.424Z,9.90
2023-10-18T00:20:24.856Z,9.90
2023-10-18T00:22:52.170Z,10.00
2023-10-18T00:25:21.454Z,9.90
2023-10-18T00:27:49.223Z,10.00
2023-10-18T00:30:21.000Z,10.10
2023-10-18T00:32:48.282Z,10.20
2023-10-18T00:35:23.087Z,10.20
2023-10-18T00:37:55.893Z,10.30
2023-10-18T00:40:29.155Z,10.20
2023-10-18T00:43:21.276Z,10.30
2023-10-18T00:45:53.284Z,10.40
2023-10-18T00:48:26.089Z,10.40
2023-10-18T00:50:54.358Z,10.50
2023-10-18T00:53:23.990Z,10.70
2023-10-18T00:56:05.984Z,10.80
2023-10-18T00:58:35.157Z,10.80
2023-10-18T01:01:10.123Z,11.00
2023-10-18T01:03:44.744Z,11.00
2023-10-18T01:06:18.250Z,11.00
2023-10-18T01:08:48.743Z,10.90
2023-10-18T01:11:20.112Z,11.00
2023-10-18T01:13:48.987Z,11.20
2023-10-18T01:16:23.064Z,11.40
2023-10-18T01:18:53.355Z,11.30
2023-10-18T01:21:21.710Z,11.30
2023-10-18T01:23:55.189Z,11.30
2023-10-18T01:26:26.459Z,11.50
2023-10-18T01:28:55.277Z,11.60
2023-10-18T01:31:23.351Z,11.70
2023-10-18T01:33:52.350Z,11.70
2023-10-18T01:36:21.948Z,11.70
2023-10-18T01:38:51.020Z,11.60
2023-10-18T01:41:27.151Z,12.80
2023-10-18T01:44:07.843Z,11.80
2023-10-18T01:46:50.280Z,11.90
2023-10-18T01:49:26.057Z,11.90
2023-10-18T01:51:55.789Z,12.10
2023-10-18T01:54:29.228Z,12.10
2023-10-18T01:56:58.855Z,12.00
2023-10-18T01:59:29.048Z,12.20
2023-10-18T02:01:58.752Z,12.10
2023-10-18T02:04:40.094Z,12.30
2023-10-18T02:07:19.047Z,12.40
2023-10-18T02:09:59.708Z,12.50
2023-10-18T02:12:28.648Z,12.50
2023-10-18T02:14:59.508Z,12.60
2023-10-18T02:17:28.401Z,12.70
2023-10-18T02:19:55.546Z,12.60
2023-10-18T02:22:22.422Z,12.60
2023-10-18T02:24:51.849Z,13.10
2023-10-18T02:27:20.838Z,13.10
2023-10-18T02:29:48.075Z,13.30
2023-10-18T02:32:33.826Z,13.30
2023-10-18T02:35:02.074Z,13.30
2023-10-18T02:37:29.002Z,13.20
2023-10-18T02:40:09.033Z,13.40
2023-10-18T02:42:36.505Z,13.20
2023-10-18T02:45:08.613Z,13.20
2023-10-18T02:47:35.758Z,13.20
2023-10-18T02:50:02.705Z,13.20
2023-10-18T02:52:31.997Z,12.80
2023-10-18T02:54:58.899Z,13.50
2023-10-18T02:57:25.988Z,12.90
2023-10-18T02:59:52.955Z,13.00
2023-10-18T03:02:25.379Z,13.10
2023-10-18T03:04:54.111Z,13.10
2023-10-18T03:07:23.377Z,13.10
2023-10-18T03:09:53.277Z,13.00
2023-10-18T03:12:23.319Z,12.90
2023-10-18T03:14:56.655Z,12.70
2023-10-18T03:17:30.657Z,12.60
2023-10-18T03:19:58.217Z,12.90
2023-10-18T03:22:32.443Z,13.00
2023-10-18T03:25:00.986Z,12.90
2023-10-18T03:27:32.364Z,12.80
2023-10-18T03:29:59.727Z,12.80
2023-10-18T03:32:28.362Z,12.80
2023-10-18T03:34:55.593Z,13.10
2023-10-18T03:37:22.788Z,13.20
2023-10-18T03:39:56.591Z,13.10
2023-10-18T03:42:33.460Z,13.20
2023-10-18T03:45:14.995Z,13.30
2023-10-18T03:47:43.075Z,13.20
2023-10-18T03:50:16.591Z,13.20
2023-10-18T03:52:46.626Z,12.90
2023-10-18T03:55:33.705Z,13.10
2023-10-18T03:58:02.355Z,13.50
2023-10-18T04:00:29.713Z,13.50
2023-10-18T04:03:12.056Z,13.40
2023-10-18T04:05:44.668Z,13.50
2023-10-18T04:08:16.092Z,13.60
2023-10-18T04:10:48.023Z,13.20
2023-10-18T04:13:15.744Z,13.30
2023-10-18T04:16:01.366Z,13.70
2023-10-18T04:18:31.046Z,13.90
2023-10-18T04:21:00.663Z,14.10
2023-10-18T04:23:27.858Z,15.20
2023-10-18T04:25:59.814Z,14.10
2023-10-18T04:28:27.616Z,14.00
2023-10-18T04:31:05.521Z,14.00
2023-10-18T04:33:50.306Z,14.10
2023-10-18T04:36:21.754Z,14.10
2023-10-18T04:38:49.564Z,14.20
2023-10-18T04:41:23.348Z,14.40
2023-10-18T04:43:52.080Z,14.60
2023-10-18T04:46:23.740Z,14.80
2023-10-18T04:48:50.602Z,14.70
2023-10-18T04:51:33.544Z,14.70
2023-10-18T04:54:31.284Z,14.80
2023-10-18T04:56:58.085Z,15.20
2023-10-18T04:59:31.315Z,15.30
2023-10-18T05:01:59.386Z,15.10
2023-10-18T05:04:33.329Z,14.70
2023-10-18T05:07:03.153Z,14.90
2023-10-18T05:09:45.212Z,15.60
2023-10-18T05:12:24.518Z,16.40
2023-10-18T05:15:08.039Z,16.50
2023-10-18T05:17:37.186Z,16.20
2023-10-18T05:20:19.477Z,16.20
2023-10-18T05:22:49.392Z,16.50
2023-10-18T05:25:23.379Z,16.80
2023-10-18T05:28:01.216Z,16.80
2023-10-18T05:30:49.688Z,16.90
2023-10-18T05:33:31.373Z,16.80
2023-10-18T05:36:23.511Z,16.40
2023-10-18T05:38:52.866Z,16.40
2023-10-18T05:41:29.636Z,16.40
2023-10-18T05:44:00.648Z,16.40
2023-10-18T05:46:35.609Z,16.70
2023-10-18T05:49:03.031Z,16.80
2023-10-18T05:51:39.505Z,17.00
2023-10-18T05:54:07.527Z,17.00
2023-10-18T05:56:34.991Z,17.20
2023-10-18T05:59:21.466Z,17.00
2023-10-18T06:01:56.159Z,17.10
2023-10-18T06:04:26.116Z,17.70
2023-10-18T06:06:56.632Z,17.70
2023-10-18T06:09:49.981Z,17.70
2023-10-18T06:12:43.493Z,17.90
2023-10-18T06:15:16.633Z,17.70
2023-10-18T06:17:47.572Z,17.80
2023-10-18T06:20:25.977Z,17.90
2023-10-18T06:23:08.281Z,18.00
2023-10-18T06:25:40.032Z,18.00
2023-10-18T06:28:08.726Z,19.00
2023-10-18T06:30:42.065Z,18.60
2023-10-18T06:33:10.519Z,20.10
2023-10-18T06:35:44.432Z,20.60
2023-10-18T06:38:18.318Z,20.30
2023-10-18T06:41:04.578Z,19.90
2023-10-18T06:43:33.723Z,20.20
2023-10-18T06:46:01.104Z,19.70
2023-10-18T06:48:29.789Z,20.40
2023-10-18T06:50:56.975Z,20.00
2023-10-18T06:53:23.936Z,20.70
2023-10-18T06:56:00.875Z,21.40
2023-10-18T06:58:30.169Z,21.90
2023-10-18T07:01:02.253Z,21.80
2023-10-18T07:03:29.324Z,22.10
2023-10-18T07:06:05.308Z,22.40
2023-10-18T07:08:41.393Z,22.20
2023-10-18T07:11:22.115Z,22.10
2023-10-18T07:13:52.061Z,22.00
2023-10-18T07:16:40.693Z,21.00
2023-10-18T07:19:07.829Z,20.10
2023-10-18T07:21:35.129Z,20.20
2023-10-18T07:24:10.528Z,20.30
2023-10-18T07:26:41.636Z,20.30
2023-10-18T07:29:08.636Z,20.40
2023-10-18T07:31:39.922Z,19.50
2023-10-18T07:34:09.997Z,18.70
2023-10-18T07:36:39.909Z,18.50
2023-10-18T07:39:07.674Z,18.20
2023-10-18T07:41:37.351Z,17.60
2023-10-18T07:44:07.518Z,17.10
2023-10-18T07:46:40.984Z,16.80
2023-10-18T07:49:16.500Z,16.20
2023-10-18T07:51:57.721Z,15.80
2023-10-18T07:54:25.360Z,15.60
2023-10-18T07:56:54.245Z,15.20
2023-10-18T07:59:34.125Z,15.00
2023-10-18T08:02:20.903Z,15.10
2023-10-18T08:04:52.142Z,14.90
2023-10-18T08:07:23.309Z,14.80
2023-10-18T08:09:52.530Z,14.10
2023-10-18T08:12:31.773Z,13.60
2023-10-18T08:14:59.141Z,13.20
2023-10-18T08:17:31.934Z,12.90
2023-10-18T08:20:18.577Z,12.60
2023-10-18T08:22:46.019Z,12.20
2023-10-18T08:25:23.051Z,12.20
2023-10-18T08:27:53.738Z,11.70
2023-10-18T08:30:44.283Z,11.50
2023-10-18T08:33:12.622Z,11.30
2023-10-18T08:35:39.539Z,11.30
2023-10-18T08:38:06.341Z,11.00
2023-10-18T08:40:36.148Z,10.80
2023-10-18T08:43:33.820Z,10.50
2023-10-18T08:46:06.569Z,10.10
2023-10-18T08:48:39.484Z,9.90
2023-10-18T08:51:07.945Z,10.00
2023-10-18T08:53:42.349Z,9.40
2023-10-18T08:56:10.204Z,9.20
2023-10-18T08:58:38.878Z,8.90
2023-10-18T09:01:07.173Z,8.60
2023-10-18T09:03:37.240Z,8.50
2023-10-18T09:06:05.927Z,7.60
2023-10-18T09:08:59.015Z,7.40
2023-10-18T09:11:29.027Z,7.40
2023-10-18T09:14:09.128Z,7.40
2023-10-18T09:16:39.079Z,7.30
2023-10-18T09:19:09.134Z,7.20
2023-10-18T09:21:45.353Z,7.00
2023-10-18T09:24:12.972Z,7.00
2023-10-18T09:26:43.308Z,7.00
2023-10-18T09:29:11.722Z,6.70
2023-10-18T09:32:03.675Z,6.60
2023-10-18T09:34:40.057Z,6.60
2023-10-18T09:37:12.553Z,6.80
2023-10-18T09:39:39.919Z,7.00
2023-10-18T09:42:08.258Z,6.80
2023-10-18T09:44:35.176Z,6.60
2023-10-18T09:47:02.959Z,6.30
2023-10-18T09:49:32.406Z,8.60
2023-10-18T09:52:04.710Z,5.70
2023-10-18T09:54:37.945Z,6.50
2023-10-18T09:57:07.857Z,5.10
2023-10-18T09:59:38.605Z,4.70
2023-10-18T10:02:10.715Z,4.20
2023-10-18T10:04:39.095Z,5.30
2023-10-18T10:07:25.007Z,4.30
2023-10-18T10:09:55.056Z,4.30
2023-10-18T10:12:28.509Z,4.20
2023-10-18T10:14:55.586Z,4.10
2023-10-18T10:17:29.987Z,4.10
2023-10-18T10:20:16.384Z,3.80
2023-10-18T10:22:46.151Z,3.70
2023-10-18T10:25:40.056Z,5.00
2023-10-18T10:28:54.784Z,4.00
2023-10-18T10:31:24.807Z,3.90
2023-10-18T10:34:07.691Z,3.90
2023-10-18T10:36:38.712Z,3.40
2023-10-18T10:39:13.854Z,3.30
2023-10-18T10:41:41.404Z,2.90
2023-10-18T10:44:09.624Z,3.70
2023-10-18T10:46:38.999Z,2.30
2023-10-18T10:50:00.752Z,2.00
2023-10-18T10:52:32.844Z,1.30
2023-10-18T10:55:29.617Z,1.20
2023-10-18T10:57:56.734Z,1.00
2023-10-18T11:00:38.569Z,1.00
2023-10-18T11:03:28.970Z,1.00
2023-10-18T11:05:58.311Z,1.00
2023-10-18T11:08:28.225Z,1.00
2023-10-18T11:10:59.312Z,1.00
2023-10-18T11:13:27.103Z,1.00
2023-10-18T11:15:54.552Z,1.00
2023-10-18T11:18:21.645Z,1.00
2023-10-18T11:20:50.571Z,1.00
2023-10-18T11:23:17.752Z,1.00
2023-10-18T11:25:44.511Z,1.00
2023-10-18T11:28:23.010Z,1.00
2023-10-18T11:30:51.845Z,1.00
2023-10-18T11:33:19.237Z,1.00
2023-10-18T11:35:55.418Z,1.00
2023-10-18T11:38:23.268Z,1.00
2023-10-18T11:40:51.860Z,1.00
2023-10-18T11:43:28.782Z,1.00
2023-10-18T11:46:06.882Z,1.00
2023-10-18T11:48:35.984Z,1.00
2023-10-18T11:51:07.467Z,1.00
2023-10-18T11:53:36.341Z,1.00
2023-10-18T11:56:10.925Z,1.00
2023-10-18T11:58:38.482Z,1.00
2023-10-18T12:01:18.680Z,1.00
2023-10-18T12:03:48.116Z,1.00
2023-10-18T12:06:15.125Z,1.00
2023-10-18T12:09:09.121Z,1.00
2023-10-18T12:11:36.398Z,1.00
2023-10-18T12:14:05.511Z,1.00
2023-10-18T12:16:35.361Z,1.00
2023-10-18T12:19:02.355Z,1.00
2023-10-18T12:21:31.980Z,1.00
2023-10-18T12:23:59.187Z,1.00
2023-10-18T12:26:26.269Z,1.00
2023-10-18T12:28:53.677Z,1.00
2023-10-18T12:31:28.006Z,1.00
2023-10-18T12:34:01.853Z,1.00
2023-10-18T12:36:39.377Z,1.00
2023-10-18T12:39:14.174Z,1.00
2023-10-18T12:41:41.177Z,1.00
2023-10-18T12:44:19.680Z,1.00
2023-10-18T12:46:47.066Z,1.00
2023-10-18T12:49:14.684Z,1.00
2023-10-18T12:51:50.589Z,1.00
2023-10-18T12:54:29.228Z,1.00
2023-10-18T12:57:11.949Z,1.00
2023-10-18T12:59:59.153Z,1.00
2023-10-18T13:02:44.851Z,1.00
2023-10-18T13:05:13.199Z,1.00
2023-10-18T13:07:44.493Z,1.00
2023-10-18T13:10:14.603Z,1.00
2023-10-18T13:12:54.483Z,1.00
2023-10-18T13:15:24.436Z,1.00
2023-10-18T13:17:52.963Z,1.00
2023-10-18T13:20:25.829Z,1.00
2023-10-18T13:22:57.017Z,1.00
2023-10-18T13:25:38.028Z,1.00
2023-10-18T13:28:07.704Z,1.00
2023-10-18T13:30:41.020Z,1.00
2023-10-18T13:33:17.471Z,1.00
2023-10-18T13:35:46.129Z,1.00
2023-10-18T13:38:16.798Z,1.00
2023-10-18T13:40:45.138Z,1.00
2023-10-18T13:43:14.471Z,1.00
2023-10-18T13:45:42.965Z,1.00
2023-10-18T13:48:13.116Z,1.00
2023-10-18T13:50:40.506Z,1.00
2023-10-18T13:53:13.383Z,1.00
2023-10-18T13:55:41.298Z,1.00
2023-10-18T13:58:08.228Z,1.00
2023-10-18T14:00:36.515Z,1.00
2023-10-18T14:03:03.783Z,1.00
2023-10-18T14:05:32.504Z,1.00
2023-10-18T14:07:59.794Z,1.00
2023-10-18T14:10:30.207Z,1.00
2023-10-18T14:12:57.448Z,1.00
2023-10-18T14:15:26.585Z,1.00
2023-10-18T14:17:53.655Z,1.00
2023-10-18T14:20:34.074Z,1.00
2023-10-18T14:23:01.626Z,1.00
2023-10-18T14:25:32.658Z,1.00
2023-10-18T14:27:59.460Z,1.00
2023-10-18T14:30:28.944Z,1.00
2023-10-18T14:33:00.395Z,1.00
2023-10-18T14:35:28.286Z,1.00
2023-10-18T14:37:55.168Z,1.00
2023-10-18T14:40:25.259Z,1.00
2023-10-18T14:42:53.621Z,1.00
2023-10-18T14:45:20.765Z,1.00
2023-10-18T14:47:49.611Z,1.00
2023-10-18T14:50:17.009Z,1.30
2023-10-18T14:52:44.165Z,1.00
2023-10-18T14:55:12.639Z,1.00
2023-10-18T14:57:41.676Z,1.00
2023-10-18T15:00:12.433Z,1.60
2023-10-18T15:02:43.179Z,1.00
2023-10-18T15:05:10.415Z,1.00
2023-10-18T15:07:40.773Z,1.60
2023-10-18T15:10:08.666Z,1.90
2023-10-18T15:12:37.437Z,2.30
2023-10-18T15:15:05.680Z,2.60
2023-10-18T15:17:33.360Z,3.10
2023-10-18T15:20:00.519Z,3.40
2023-10-18T15:22:27.338Z,3.70
2023-10-18T15:25:00.480Z,4.20
2023-10-18T15:27:27.429Z,4.30
2023-10-18T15:29:54.426Z,4.60
2023-10-18T15:32:21.338Z,5.00
2023-10-18T15:34:48.279Z,5.40
2023-10-18T15:37:15.462Z,5.70
2023-10-18T15:39:42.459Z,6.00
2023-10-18T15:42:12.427Z,6.40
2023-10-18T15:44:39.676Z,6.10
2023-10-18T15:47:09.568Z,6.10
2023-10-18T15:49:37.250Z,6.30
2023-10-18T15:52:08.131Z,6.50
2023-10-18T15:54:35.643Z,6.80
2023-10-18T15:57:03.034Z,6.90
2023-10-18T15:59:32.575Z,7.00
2023-10-18T16:02:00.061Z,7.30
2023-10-18T16:04:28.387Z,7.40
2023-10-18T16:06:57.010Z,7.70
2023-10-18T16:09:24.054Z,8.10
2023-10-18T16:11:50.926Z,8.60
2023-10-18T16:14:17.930Z,8.70
2023-10-18T16:16:44.885Z,8.70
2023-10-18T16:19:12.118Z,9.10
2023-10-18T16:21:42.092Z,9.40
2023-10-18T16:24:09.924Z,9.40
2023-10-18T16:26:36.771Z,9.50
2023-10-18T16:29:06.276Z,9.70
2023-10-18T16:31:34.398Z,10.30
2023-10-18T16:34:01.397Z,9.90
2023-10-18T16:36:28.408Z,9.90
2023-10-18T16:38:55.596Z,10.10
2023-10-18T16:41:22.696Z,10.20
2023-10-18T16:43:52.596Z,10.40
2023-10-18T16:46:21.568Z,10.50
2023-10-18T16:48:51.027Z,10.80
2023-10-18T16:51:18.511Z,10.80
2023-10-18T16:53:48.772Z,10.80
2023-10-18T16:56:17.006Z,10.90
2023-10-18T16:58:44.149Z,11.10
2023-10-18T17:01:18.907Z,11.40
2023-10-18T17:03:49.125Z,11.50
2023-10-18T17:06:17.494Z,11.70
2023-10-18T17:08:46.501Z,12.00
2023-10-18T17:11:15.533Z,12.20
2023-10-18T17:13:48.315Z,12.30
2023-10-18T17:16:16.065Z,13.90
2023-10-18T17:18:44.226Z,12.50
2023-10-18T17:21:19.880Z,12.70
2023-10-18T17:23:52.452Z,13.70
2023-10-18T17:26:19.552Z,13.30
2023-10-18T17:28:48.116Z,13.00
2023-10-18T17:31:21.604Z,13.10
2023-10-18T17:33:49.046Z,13.30
2023-10-18T17:36:19.896Z,13.40
2023-10-18T17:38:47.950Z,13.50
2023-10-18T17:41:15.706Z,15.40
2023-10-18T17:43:42.733Z,13.80
2023-10-18T17:46:09.860Z,14.00
2023-10-18T17:48:36.822Z,14.00
2023-10-18T17:51:16.485Z,14.10
2023-10-18T17:53:43.585Z,14.30
2023-10-18T17:56:13.890Z,14.70
2023-10-18T17:58:42.682Z,14.90
2023-10-18T18:01:21.867Z,16.20
2023-10-18T18:03:53.566Z,16.40
2023-10-18T18:06:21.504Z,15.30
2023-10-18T18:08:48.428Z,15.30
2023-10-18T18:11:15.391Z,15.50
2023-10-18T18:13:47.432Z,16.80
2023-10-18T18:16:15.435Z,15.70
2023-10-18T18:18:44.844Z,15.70
2023-10-18T18:21:13.782Z,16.10
2023-10-18T18:23:41.313Z,15.80
2023-10-18T18:26:14.236Z,15.90
2023-10-18T18:28:42.219Z,15.70
2023-10-18T18:31:09.654Z,15.70
2023-10-18T18:33:41.697Z,15.60
2023-10-18T18:36:09.029Z,15.50
2023-10-18T18:38:35.896Z,15.50
2023-10-18T18:41:03.835Z,15.40
2023-10-18T18:43:30.685Z,15.40
2023-10-18T18:46:00.721Z,15.60
2023-10-18T18:48:27.640Z,15.40
2023-10-18T18:50:55.936Z,15.30
2023-10-18T18:53:23.396Z,15.30
2023-10-18T18:55:50.374Z,15.20
2023-10-18T18:58:17.216Z,15.20
2023-10-18T19:00:44.165Z,15.00
2023-10-18T19:03:11.153Z,15.00
2023-10-18T19:05:38.150Z,14.90
2023-10-18T19:08:08.012Z,15.00
2023-10-18T19:10:36.158Z,15.00
2023-10-18T19:13:03.059Z,14.90
2023-10-18T19:15:30.456Z,14.90
2023-10-18T19:17:57.369Z,14.90
2023-10-18T19:20:26.448Z,14.80
2023-10-18T19:22:55.402Z,14.90
2023-10-18T19:25:22.455Z,14.70
2023-10-18T19:27:49.555Z,14.70
2023-10-18T19:30:21.378Z,14.90
2023-10-18T19:32:48.527Z,14.80
2023-10-18T19:35:16.312Z,14.70
2023-10-18T19:37:43.467Z,14.70
2023-10-18T19:40:14.678Z,14.50
2023-10-18T19:42:42.386Z,14.30
2023-10-18T19:45:11.891Z,14.10
2023-10-18T19:47:38.940Z,14.00
2023-10-18T19:50:07.792Z,13.90
2023-10-18T19:52:35.093Z,13.90
2023-10-18T19:55:02.192Z,13.70
2023-10-18T19:57:29.161Z,13.70
2023-10-18T19:59:56.100Z,13.50
2023-10-18T20:02:23.610Z,13.60
2023-10-18T20:04:50.558Z,13.80
2023-10-18T20:07:17.393Z,13.30
2023-10-18T20:09:45.184Z,13.20
2023-10-18T20:12:12.407Z,13.10
2023-10-18T20:14:39.637Z,13.10
2023-10-18T20:17:06.965Z,14.00
2023-10-18T20:19:34.238Z,12.90
2023-10-18T20:22:01.411Z,12.90
2023-10-18T20:24:28.359Z,12.90
2023-10-18T20:26:55.223Z,13.00
2023-10-18T20:29:22.420Z,13.00
2023-10-18T20:31:53.158Z,13.20
2023-10-18T20:34:20.714Z,12.90
2023-10-18T20:36:47.763Z,13.90
2023-10-18T20:39:18.443Z,13.40
2023-10-18T20:41:45.767Z,13.50
2023-10-18T20:44:28.428Z,13.60
2023-10-18T20:46:57.143Z,13.50
2023-10-18T20:49:29.650Z,13.70
2023-10-18T20:51:58.562Z,13.70
2023-10-18T20:54:34.175Z,13.70
2023-10-18T20:57:12.256Z,14.00
2023-10-18T20:59:46.243Z,13.50
2023-10-18T21:02:18.390Z,13.40
2023-10-18T21:04:49.025Z,13.30
2023-10-18T21:07:25.747Z,13.20
2023-10-18T21:09:54.040Z,13.20
2023-10-18T21:12:22.181Z,13.10
2023-10-18T21:14:49.793Z,13.20
2023-10-18T21:17:16.799Z,13.30
2023-10-18T21:19:44.451Z,13.20
2023-10-18T21:22:11.422Z,13.20
2023-10-18T21:24:38.228Z,13.40
2023-10-18T21:27:05.104Z,13.40
2023-10-18T21:29:31.920Z,13.40
2023-10-18T21:31:59.114Z,13.40
2023-10-18T21:34:26.503Z,13.50
2023-10-18T21:36:53.540Z,13.70
2023-10-18T21:39:25.251Z,13.20
2023-10-18T21:41:52.081Z,13.80
2023-10-18T21:44:19.057Z,14.90
2023-10-18T21:46:46.952Z,14.10
2023-10-18T21:49:13.899Z,14.30
2023-10-18T21:51:41.649Z,14.40
2023-10-18T21:54:08.413Z,14.60
2023-10-18T21:56:35.231Z,14.60
2023-10-18T21:59:02.272Z,14.60
2023-10-18T22:01:49.448Z,14.70
2023-10-18T22:04:16.891Z,14.90
2023-10-18T22:06:44.017Z,15.10
2023-10-18T22:09:37.308Z,15.30
2023-10-18T22:12:04.706Z,15.40
2023-10-18T22:14:31.970Z,15.50
2023-10-18T22:17:06.553Z,15.40
2023-10-18T22:19:34.241Z,15.60
2023-10-18T22:22:24.509Z,15.50
2023-10-18T22:24:51.824Z,15.60
2023-10-18T22:27:19.183Z,15.70
2023-10-18T22:29:49.988Z,16.10
2023-10-18T22:32:25.599Z,15.80
2023-10-18T22:34:54.013Z,16.40
2023-10-18T22:37:22.030Z,15.90
2023-10-18T22:39:51.949Z,17.00
2023-10-18T22:42:24.184Z,16.10
2023-10-18T22:45:11.035Z,16.20
2023-10-18T22:47:41.510Z,16.20
2023-10-18T22:50:22.626Z,16.40
2023-10-18T22:52:55.440Z,16.40
2023-10-18T22:55:24.262Z,16.40
2023-10-18T22:57:56.068Z,16.70
2023-10-18T23:00:35.124Z,17.00
2023-10-18T23:03:05.850Z,17.10
2023-10-18T23:05:33.082Z,17.10
2023-10-18T23:08:00.864Z,18.50
2023-10-18T23:10:48.155Z,17.50
2023-10-18T23:13:31.716Z,17.60
2023-10-18T23:16:00.666Z,17.70
2023-10-18T23:18:35.694Z,18.00
2023-10-18T23:21:13.041Z,18.10
2023-10-18T23:23:55.502Z,18.00
2023-10-18T23:26:42.434Z,18.20
2023-10-18T23:29:16.292Z,18.30
2023-10-18T23:31:45.869Z,18.80
2023-10-18T23:34:25.692Z,18.50
2023-10-18T23:37:19.889Z,18.50
2023-10-18T23:39:55.832Z,18.70
2023-10-18T23:42:34.684Z,18.70
2023-10-18T23:45:04.305Z,18.80
2023-10-18T23:47:51.139Z,19.90
2023-10-18T23:50:18.517Z,20.10
2023-10-18T23:53:04.959Z,19.30
2023-10-18T23:55:41.013Z,19.00
2023-10-18T23:58:15.536Z,19.00
